Time;durP1;ratioP1;P1;durP2;ratioP2;P2;SDS_P1;SDS_P2;PMS_P1;PMS_P2;Temp;Humidity;BMP_temperature;BMP_pressure;BME280_temperature;BME280_humidity;BME280_pressure;Samples;Min_cycle;Max_cycle;Signal;HPM_P1;HPM_P2
2023/03/28 00:01:29;;;;;;;2.88;2.30;;;;;;;3.00;66.51;93763.03;5113505;28;20477;-75
2023/03/28 00:03:55;;;;;;;2.50;2.03;;;;;;;2.96;68.21;93764.19;5096166;28;20028;-75
2023/03/28 00:06:23;;;;;;;2.72;2.13;;;;;;;2.98;66.66;93775.97;5113364;28;20050;-75
2023/03/28 00:08:49;;;;;;;2.15;1.60;;;;;;;2.90;66.16;93775.69;5096352;28;20058;-75
2023/03/28 00:11:19;;;;;;;2.20;1.80;;;;;;;2.92;66.21;93784.06;5096685;28;20028;-75
2023/03/28 00:13:45;;;;;;;3.15;2.10;;;;;;;2.96;65.82;93785.53;5112855;28;20038;-75
2023/03/28 00:16:11;;;;;;;2.22;1.58;;;;;;;2.88;65.86;93808.31;5096453;28;20032;-75
2023/03/28 00:18:37;;;;;;;2.03;1.40;;;;;;;2.92;64.15;93812.28;5096309;28;20031;-75
2023/03/28 00:21:06;;;;;;;3.38;1.55;;;;;;;2.86;64.86;93825.56;5113135;28;20473;-75
2023/03/28 00:23:34;;;;;;;2.00;1.30;;;;;;;2.78;63.66;93823.50;5113002;28;20101;-75
2023/03/28 00:26:12;;;;;;;3.45;1.70;;;;;;;2.51;64.54;93807.41;5113491;28;20126;-75
2023/03/28 00:28:37;;;;;;;2.00;1.40;;;;;;;2.55;65.03;93826.81;5096855;28;20112;-76
2023/03/28 00:31:05;;;;;;;2.22;1.52;;;;;;;2.75;64.88;93858.81;5096353;28;20028;-75
2023/03/28 00:33:30;;;;;;;2.08;1.75;;;;;;;2.48;64.10;93841.81;5112738;28;20501;-75
2023/03/28 00:35:56;;;;;;;3.13;1.92;;;;;;;2.44;64.79;93848.03;5095768;28;20057;-75
2023/03/28 00:38:21;;;;;;;2.47;1.77;;;;;;;2.36;64.39;93870.78;5095992;28;20509;-75
2023/03/28 00:40:47;;;;;;;2.30;1.73;;;;;;;2.39;64.52;93873.97;5095812;28;20046;-75
2023/03/28 00:43:13;;;;;;;2.35;1.80;;;;;;;2.23;64.47;93847.72;5114118;28;20042;-75
2023/03/28 00:45:39;;;;;;;2.53;2.00;;;;;;;2.22;64.78;93852.00;5095766;28;20027;-76
2023/03/28 00:48:07;;;;;;;3.60;2.33;;;;;;;2.38;65.58;93866.38;5112803;28;20060;-76
2023/03/28 00:50:36;;;;;;;4.25;2.22;;;;;;;2.25;64.41;93843.28;5095477;28;20032;-75
2023/03/28 00:53:08;;;;;;;3.22;2.53;;;;;;;2.35;63.91;93866.59;5095629;28;20032;-75
2023/03/28 00:55:41;;;;;;;2.78;2.22;;;;;;;2.11;64.74;93854.44;5112031;28;20497;-76
2023/03/28 00:58:09;;;;;;;3.40;2.70;;;;;;;2.16;64.50;93884.91;5091381;28;20024;-75
2023/03/28 01:00:34;;;;;;;3.40;2.80;;;;;;;2.11;64.39;93892.88;5127728;27;20032;-75
2023/03/28 01:03:00;;;;;;;4.70;3.00;;;;;;;1.96;65.05;93901.56;5092106;28;20501;-75
2023/03/28 01:05:27;;;;;;;3.70;3.00;;;;;;;1.94;64.00;93904.22;5092831;28;20085;-74
2023/03/28 01:08:05;;;;;;;3.67;2.88;;;;;;;1.70;64.69;93888.69;5095196;28;20035;-75
2023/03/28 01:10:31;;;;;;;3.72;3.13;;;;;;;1.90;64.84;93915.59;5097094;28;20103;-75
2023/03/28 01:12:56;;;;;;;4.10;3.28;;;;;;;1.65;64.48;93888.13;5095378;28;20487;-75
2023/03/28 01:15:22;;;;;;;3.63;3.10;;;;;;;1.76;64.70;93906.22;5078424;28;20100;-75
2023/03/28 01:17:49;;;;;;;4.00;3.40;;;;;;;1.62;64.82;93900.31;5094856;28;20108;-75
2023/03/28 01:20:45;;;;;;;3.42;2.80;;;;;;;1.72;64.22;93925.22;5078799;28;20042;-74
2023/03/28 01:23:19;;;;;;;3.88;3.42;;;;;;;1.51;63.01;93913.78;5084041;28;20031;-75
2023/03/28 01:25:45;;;;;;;3.65;2.92;;;;;;;1.59;63.70;93931.19;5095404;28;20050;-75
2023/03/28 01:28:33;;;;;;;3.88;3.03;;;;;;;1.54;63.30;93905.91;5113462;28;20104;-75
2023/03/28 01:31:10;;;;;;;4.30;3.65;;;;;;;1.60;64.28;93931.13;5101165;28;20040;-75
2023/03/28 01:33:54;;;;;;;3.88;3.20;;;;;;;1.52;63.74;93921.34;5111990;28;20538;-73
2023/03/28 01:37:16;;;;;;;3.88;2.97;;;;;;;1.56;63.72;93929.66;5108034;28;20032;-73
2023/03/28 01:39:57;;;;;;;4.20;3.03;;;;;;;1.38;63.21;93915.44;5026040;28;20041;-74
2023/03/28 01:42:52;;;;;;;4.03;3.08;;;;;;;1.45;63.73;93937.16;5109460;27;20026;-74
2023/03/28 01:45:27;;;;;;;3.95;3.15;;;;;;;1.40;63.27;93923.84;5118230;27;20028;-77
2023/03/28 01:48:02;;;;;;;4.72;3.45;;;;;;;1.36;63.66;93922.38;5110410;28;20077;-77
2023/03/28 01:50:36;;;;;;;4.20;3.58;;;;;;;1.39;63.46;93952.91;5111425;28;20114;-78
2023/03/28 01:53:34;;;;;;;3.63;3.03;;;;;;;1.08;62.83;93898.47;5109811;28;20054;-78
2023/03/28 01:56:03;;;;;;;3.60;2.85;;;;;;;1.24;63.25;93923.97;5106800;28;20259;-76
2023/03/28 01:59:06;;;;;;;4.03;3.42;;;;;;;1.34;62.18;93930.16;5073772;28;20521;-76
2023/03/28 02:02:28;;;;;;;3.60;3.10;;;;;;;1.37;63.46;93918.94;5097495;28;20066;-76
2023/03/28 02:04:55;;;;;;;5.82;3.75;;;;;;;1.39;62.73;93906.84;5106515;28;20047;-76
2023/03/28 02:07:20;;;;;;;3.80;2.95;;;;;;;1.05;62.98;93865.41;5076343;28;20467;-76
2023/03/28 02:09:46;;;;;;;3.92;2.65;;;;;;;0.70;62.22;93834.28;5110464;28;20031;-77
2023/03/28 02:12:15;;;;;;;4.40;3.15;;;;;;;0.89;62.25;93850.16;5123925;27;20031;-77
2023/03/28 02:14:42;;;;;;;4.75;3.72;;;;;;;0.67;62.95;93827.63;5127968;27;20031;-77
2023/03/28 02:17:14;;;;;;;3.85;3.15;;;;;;;1.44;62.65;93940.66;5122712;27;20023;-77
2023/03/28 02:19:39;;;;;;;5.30;3.80;;;;;;;1.31;63.13;93903.03;5116470;27;20035;-77
2023/03/28 02:22:14;;;;;;;4.68;3.60;;;;;;;1.28;63.21;93916.00;5093226;28;20413;-76
2023/03/28 02:24:40;;;;;;;4.43;3.33;;;;;;;1.26;62.79;93911.91;5109942;28;20031;-77
2023/03/28 02:27:07;;;;;;;4.63;3.63;;;;;;;1.20;63.35;93918.22;5110074;28;20028;-75
2023/03/28 02:29:34;;;;;;;4.95;3.38;;;;;;;1.14;63.77;93917.75;5111462;28;20107;-79
2023/03/28 02:32:00;;;;;;;4.00;3.40;;;;;;;1.24;63.92;93906.88;5108945;28;20030;-76
2023/03/28 02:34:25;;;;;;;4.85;3.45;;;;;;;1.23;64.09;93902.66;5109630;28;20463;-75
2023/03/28 02:37:23;;;;;;;4.47;3.45;;;;;;;1.34;63.32;93918.19;5084843;28;20031;-75
2023/03/28 02:39:57;;;;;;;4.93;3.15;;;;;;;1.33;63.96;93913.97;5075616;28;20044;-75
2023/03/28 02:42:32;;;;;;;4.20;3.10;;;;;;;1.27;64.05;93924.59;5124245;27;20057;-75
2023/03/28 02:45:19;;;;;;;5.65;3.38;;;;;;;1.25;63.09;93897.44;5123939;27;20036;-75
2023/03/28 02:48:00;;;;;;;3.75;3.08;;;;;;;1.52;62.58;93912.84;5106504;28;20077;-76
2023/03/28 02:50:41;;;;;;;5.45;3.20;;;;;;;1.45;63.23;93920.09;5105781;28;20032;-76
2023/03/28 02:53:13;;;;;;;4.60;3.40;;;;;;;1.33;63.11;93923.38;5092864;28;20023;-75
2023/03/28 02:55:48;;;;;;;4.40;3.42;;;;;;;1.31;63.70;93925.25;5110095;28;20486;-76
2023/03/28 02:58:20;;;;;;;5.47;3.70;;;;;;;1.43;64.13;93911.69;5148075;27;20028;-75
2023/03/28 03:00:45;;;;;;;5.25;3.67;;;;;;;1.45;62.63;93922.66;5110085;28;20058;-75
2023/03/28 03:03:12;;;;;;;3.92;3.30;;;;;;;1.59;63.07;93921.81;5096426;28;20418;-76
2023/03/28 03:05:38;;;;;;;7.55;4.43;;;;;;;1.30;62.59;93872.41;5096588;28;20071;-76
2023/03/28 03:08:03;;;;;;;9.43;6.28;;;;;;;1.53;62.98;93915.34;5113667;28;20631;-76
2023/03/28 03:10:29;;;;;;;6.18;4.32;;;;;;;1.65;62.67;93916.31;5097125;28;20035;-76
2023/03/28 03:12:54;;;;;;;7.95;5.63;;;;;;;1.67;62.27;93909.34;5114157;28;20024;-76
2023/03/28 03:15:20;;;;;;;4.57;3.38;;;;;;;1.60;61.70;93908.06;5097014;28;20092;-76
2023/03/28 03:17:45;;;;;;;3.10;2.42;;;;;;;1.73;59.63;93937.13;5096187;28;20038;-75
2023/03/28 03:20:11;;;;;;;3.28;2.17;;;;;;;1.63;59.69;93920.69;5128975;27;20046;-75
2023/03/28 03:22:36;;;;;;;3.05;2.30;;;;;;;1.72;59.83;93927.78;5130489;27;20077;-75
2023/03/28 03:25:05;;;;;;;3.25;2.58;;;;;;;1.79;60.97;93943.59;5130930;27;20502;-75
2023/03/28 03:27:31;;;;;;;4.22;3.40;;;;;;;1.66;59.79;93919.69;5112611;28;20417;-74
2023/03/28 03:29:57;;;;;;;3.45;2.60;;;;;;;1.82;60.06;93945.16;5092898;28;20036;-75
2023/03/28 03:32:22;;;;;;;5.82;3.25;;;;;;;1.83;60.28;93946.78;5106239;28;20038;-74
2023/03/28 03:34:48;;;;;;;6.45;5.50;;;;;;;1.66;60.81;93956.34;5113281;28;20035;-74
2023/03/28 03:37:13;;;;;;;5.43;4.47;;;;;;;1.62;60.96;93959.22;5143098;27;20031;-76
2023/03/28 03:39:39;;;;;;;8.10;5.15;;;;;;;1.52;61.69;93962.31;5116740;27;20027;-76
2023/03/28 03:42:05;;;;;;;10.50;5.75;;;;;;;1.34;61.72;93935.28;5091975;27;20424;-75
2023/03/28 03:44:30;;;;;;;13.35;6.28;;;;;;;1.67;61.35;93985.31;5120746;27;20054;-76
2023/03/28 03:46:56;;;;;;;8.25;4.45;;;;;;;1.52;61.75;93981.97;5095291;28;20417;-75
2023/03/28 03:49:22;;;;;;;5.28;4.28;;;;;;;1.51;61.18;93993.13;5129629;27;20093;-76
2023/03/28 03:51:47;;;;;;;5.35;3.42;;;;;;;1.39;60.60;93981.88;5113155;28;20110;-76
2023/03/28 03:54:13;;;;;;;5.68;4.00;;;;;;;1.33;61.49;94003.53;5113064;28;20034;-76
2023/03/28 03:56:38;;;;;;;5.28;3.97;;;;;;;1.29;60.78;94014.88;5096167;28;20027;-77
2023/03/28 03:59:04;;;;;;;4.82;3.65;;;;;;;1.22;60.79;94026.38;5147649;27;20031;-76
2023/03/28 04:01:33;;;;;;;4.65;3.00;;;;;;;0.90;61.58;93977.13;5130540;27;20032;-76
2023/03/28 04:03:58;;;;;;;4.25;3.10;;;;;;;1.16;60.16;94008.84;5113162;28;20094;-76
2023/03/28 04:06:24;;;;;;;5.70;3.45;;;;;;;0.84;60.16;93993.66;5147499;27;20197;-76
2023/03/28 04:08:50;;;;;;;6.60;4.18;;;;;;;1.17;61.18;94051.44;5113468;27;20032;-75
2023/03/28 04:11:16;;;;;;;4.72;3.33;;;;;;;1.15;61.13;94048.13;5109326;28;20501;-76
2023/03/28 04:13:41;;;;;;;5.18;3.08;;;;;;;1.15;60.23;94048.13;5092719;28;20028;-77
2023/03/28 04:16:07;;;;;;;3.08;2.30;;;;;;;1.16;59.95;94047.22;5076256;28;20039;-77
2023/03/28 04:18:34;;;;;;;6.45;3.30;;;;;;;1.22;58.80;94046.84;5094709;28;20032;-77
2023/03/28 04:21:01;;;;;;;3.00;2.10;;;;;;;1.17;58.59;94060.81;5112414;28;20032;-77
2023/03/28 04:23:26;;;;;;;3.97;2.47;;;;;;;1.22;59.36;94048.59;5113059;28;20028;-77
2023/03/28 04:25:56;;;;;;;8.43;4.75;;;;;;;1.19;59.75;94053.91;5112863;28;20038;-77
2023/03/28 04:28:24;;;;;;;7.93;4.90;;;;;;;1.16;61.18;94052.34;5096334;28;20020;-77
2023/03/28 04:30:56;;;;;;;5.45;3.60;;;;;;;1.39;60.00;94045.03;5096272;28;20081;-77
2023/03/28 04:33:24;;;;;;;7.50;3.67;;;;;;;1.42;59.92;94042.31;5096079;28;20517;-76
2023/03/28 04:35:58;;;;;;;11.65;6.30;;;;;;;1.48;59.37;94075.25;5112656;28;20041;-77
2023/03/28 04:38:27;;;;;;;3.95;3.10;;;;;;;1.46;58.96;94071.94;5096190;28;20031;-77
2023/03/28 04:40:56;;;;;;;4.70;3.53;;;;;;;1.60;58.43;94079.63;5112063;28;20040;-77
2023/03/28 04:43:25;;;;;;;4.13;3.10;;;;;;;1.41;57.15;94063.69;5095932;28;20027;-77
2023/03/28 04:45:52;;;;;;;5.13;3.35;;;;;;;1.42;56.45;94070.44;5095928;28;20039;-76
2023/03/28 04:48:17;;;;;;;8.35;3.00;;;;;;;1.52;55.78;94095.44;5073044;27;20031;-77
2023/03/28 04:50:43;;;;;;;3.55;2.35;;;;;;;1.34;56.65;94084.53;5091859;28;20032;-77
2023/03/28 04:53:08;;;;;;;8.65;4.63;;;;;;;1.49;56.12;94125.50;5105988;28;20067;-77
2023/03/28 04:55:34;;;;;;;9.95;5.50;;;;;;;1.50;55.82;94130.53;5124709;27;20448;-77
2023/03/28 04:57:59;;;;;;;8.77;4.55;;;;;;;1.34;56.02;94117.00;5108796;27;20024;-76
2023/03/28 05:00:26;;;;;;;5.05;3.90;;;;;;;1.46;56.67;94149.53;5108889;27;20042;-76
2023/03/28 05:02:55;;;;;;;4.72;3.53;;;;;;;1.30;55.39;94154.72;5090181;28;20032;-76
2023/03/28 05:05:23;;;;;;;4.82;3.65;;;;;;;0.99;55.94;94094.25;5073003;28;20051;-77
2023/03/28 05:07:49;;;;;;;7.22;4.70;;;;;;;1.05;55.34;94113.53;5108821;27;20031;-77
2023/03/28 05:10:15;;;;;;;7.88;5.40;;;;;;;1.31;56.17;94160.69;5136268;27;20074;-77
2023/03/28 05:12:40;;;;;;;7.07;4.72;;;;;;;1.35;56.32;94151.91;5109185;27;20031;-78
2023/03/28 05:15:06;;;;;;;9.38;5.28;;;;;;;1.22;55.80;94164.56;5090827;28;20033;-77
2023/03/28 05:17:32;;;;;;;45.78;18.15;;;;;;;1.19;55.62;94167.28;5089830;28;20073;-77
2023/03/28 05:19:57;;;;;;;19.35;9.73;;;;;;;1.29;56.55;94158.19;5089836;28;20032;-77
2023/03/28 05:22:23;;;;;;;15.57;8.20;;;;;;;1.27;56.19;94144.66;5089286;28;20038;-76
2023/03/28 05:24:48;;;;;;;10.95;6.85;;;;;;;1.14;55.86;94145.44;5090064;28;20028;-76
2023/03/28 05:27:14;;;;;;;13.65;7.32;;;;;;;1.23;55.88;94163.66;5088248;28;20042;-76
2023/03/28 05:29:39;;;;;;;8.05;6.10;;;;;;;1.18;57.28;94168.22;5072970;28;20350;-75
2023/03/28 05:32:05;;;;;;;26.40;9.45;;;;;;;1.16;56.96;94136.78;5089170;27;20024;-75
2023/03/28 05:34:33;;;;;;;9.23;6.05;;;;;;;1.25;56.98;94156.69;5089905;28;20062;-78
2023/03/28 05:36:58;;;;;;;10.07;6.80;;;;;;;0.58;57.65;94064.16;5090241;28;20028;-78
2023/03/28 05:39:24;;;;;;;7.10;5.40;;;;;;;0.59;57.21;94053.03;5107467;28;20085;-78
2023/03/28 05:41:49;;;;;;;9.10;6.07;;;;;;;1.31;58.50;94184.53;5107555;28;20058;-78
2023/03/28 05:44:15;;;;;;;10.68;7.60;;;;;;;1.00;59.10;94136.81;5125269;27;20497;-78
2023/03/28 05:46:40;;;;;;;8.65;6.15;;;;;;;0.81;59.08;94114.00;5107666;28;20059;-79
2023/03/28 05:49:07;;;;;;;8.20;6.43;;;;;;;0.65;60.09;94103.81;5090390;28;20168;-79
2023/03/28 05:51:32;;;;;;;9.77;6.40;;;;;;;0.96;60.96;94176.25;5107437;28;20092;-79
2023/03/28 05:53:58;;;;;;;8.85;6.65;;;;;;;1.15;61.34;94205.94;5091201;28;20031;-79
2023/03/28 05:56:23;;;;;;;7.95;5.82;;;;;;;1.04;62.19;94198.88;5107297;28;20040;-78
2023/03/28 05:58:48;;;;;;;8.02;5.63;;;;;;;1.05;62.68;94192.84;5070121;28;20036;-79
2023/03/28 06:01:17;;;;;;;8.85;6.22;;;;;;;1.12;62.78;94194.16;5088645;28;20047;-79
2023/03/28 06:03:46;;;;;;;9.85;6.40;;;;;;;0.30;63.65;94092.94;5089023;28;20051;-79
2023/03/28 06:06:12;;;;;;;7.70;6.43;;;;;;;0.43;64.53;94101.59;5120742;27;20059;-79
2023/03/28 06:08:45;;;;;;;8.95;6.82;;;;;;;0.49;63.59;94114.97;5105479;27;20111;-78
2023/03/28 06:11:14;;;;;;;8.15;6.47;;;;;;;0.61;62.42;94144.94;5106092;28;20032;-85
2023/03/28 06:13:40;;;;;;;9.40;6.43;;;;;;;1.09;61.81;94222.47;5073560;28;20071;-79
2023/03/28 06:16:05;;;;;;;8.20;6.13;;;;;;;1.04;62.31;94234.69;5102725;28;20494;-80
2023/03/28 06:18:31;;;;;;;7.60;6.40;;;;;;;0.25;62.53;94112.81;5111394;28;20032;-79
2023/03/28 06:20:56;;;;;;;9.20;6.72;;;;;;;0.81;62.63;94228.28;5110819;28;20027;-80
2023/03/28 06:23:22;;;;;;;9.45;7.13;;;;;;;0.09;61.81;94107.72;5108650;28;20028;-79
2023/03/28 06:25:48;;;;;;;7.72;6.43;;;;;;;0.37;63.18;94162.47;5091925;28;20103;-80
2023/03/28 06:28:13;;;;;;;8.68;6.88;;;;;;;0.22;62.69;94129.16;5091513;28;20031;-80
2023/03/28 06:30:39;;;;;;;9.43;6.78;;;;;;;0.82;63.55;94237.56;5145367;27;20055;-80
2023/03/28 06:33:05;;;;;;;9.20;7.20;;;;;;;0.28;62.46;94193.59;5127962;27;20085;-80
2023/03/28 06:35:31;;;;;;;11.45;7.03;;;;;;;0.46;62.87;94199.47;5112057;28;20032;-79
2023/03/28 06:37:57;;;;;;;8.50;6.43;;;;;;;0.86;61.91;94251.84;5144552;27;20029;-80
2023/03/28 06:40:23;;;;;;;9.38;7.40;;;;;;;0.74;62.22;94219.25;5144997;27;20107;-80
2023/03/28 06:42:49;;;;;;;9.27;6.82;;;;;;;0.51;61.63;94200.06;5109759;28;20020;-80
2023/03/28 06:45:14;;;;;;;12.07;7.07;;;;;;;0.33;61.22;94160.94;5124969;27;20409;-80
2023/03/28 06:47:40;;;;;;;9.45;6.78;;;;;;;0.51;59.69;94182.97;5108564;28;20405;-80
2023/03/28 06:50:06;;;;;;;8.60;7.00;;;;;;;0.64;59.31;94181.41;5108851;28;20115;-80
2023/03/28 06:52:32;;;;;;;10.05;7.00;;;;;;;1.20;59.37;94244.88;5125457;27;20362;-80
2023/03/28 06:54:57;;;;;;;8.45;6.70;;;;;;;1.31;58.50;94263.88;5109927;28;20349;-80
2023/03/28 06:57:23;;;;;;;11.90;7.97;;;;;;;1.04;57.86;94225.28;5109656;28;20027;-80
2023/03/28 06:59:50;;;;;;;8.73;6.72;;;;;;;0.75;57.42;94156.97;5127516;28;20063;-80
2023/03/28 07:02:16;;;;;;;7.40;6.38;;;;;;;0.70;56.48;94175.16;5111692;28;20023;-79
2023/03/28 07:04:41;;;;;;;11.10;7.47;;;;;;;0.51;56.84;94159.16;5110154;28;20486;-80
2023/03/28 07:07:08;;;;;;;12.52;8.35;;;;;;;1.38;56.00;94273.75;5112196;28;20026;-80
2023/03/28 07:09:34;;;;;;;10.82;7.88;;;;;;;1.45;57.06;94290.41;5127538;28;20509;-80
2023/03/28 07:12:00;;;;;;;12.43;9.35;;;;;;;1.10;56.26;94245.38;5110450;28;20024;-80
2023/03/28 07:14:25;;;;;;;8.82;7.78;;;;;;;0.84;55.64;94192.28;5127464;28;20026;-80
2023/03/28 07:16:51;;;;;;;8.88;6.82;;;;;;;1.26;55.64;94290.63;5110247;28;20027;-80
2023/03/28 07:19:16;;;;;;;16.67;9.23;;;;;;;1.03;55.83;94244.09;5126945;27;20031;-80
2023/03/28 07:21:42;;;;;;;18.13;10.13;;;;;;;1.06;55.18;94227.75;5111487;28;20034;-80
2023/03/28 07:24:07;;;;;;;13.45;7.20;;;;;;;1.82;55.26;94302.00;5110061;28;20023;-80
2023/03/28 07:26:33;;;;;;;9.02;6.63;;;;;;;1.36;54.52;94221.81;5110299;28;20028;-80
2023/03/28 07:28:59;;;;;;;7.88;6.68;;;;;;;1.67;53.45;94262.72;5111602;28;20068;-80
2023/03/28 07:31:24;;;;;;;8.73;6.10;;;;;;;1.49;53.53;94215.09;5093676;28;20055;-80
2023/03/28 07:33:50;;;;;;;9.80;6.63;;;;;;;1.83;52.64;94264.38;5109858;28;20063;-80
2023/03/28 07:36:17;;;;;;;8.60;6.60;;;;;;;1.55;53.88;94237.78;5093133;28;20444;-80
2023/03/28 07:38:43;;;;;;;11.43;7.38;;;;;;;1.93;54.06;94281.72;5093349;28;20028;-80
2023/03/28 07:41:10;;;;;;;8.57;6.78;;;;;;;1.42;53.54;94214.66;5110326;28;20036;-80
2023/03/28 07:43:37;;;;;;;8.65;6.20;;;;;;;1.40;51.63;94213.91;5110656;28;20036;-80
2023/03/28 07:46:05;;;;;;;8.63;5.90;;;;;;;1.29;52.61;94219.63;5114382;28;20028;-80
2023/03/28 07:48:30;;;;;;;7.53;6.10;;;;;;;1.89;52.68;94305.03;5097503;28;20020;-80
2023/03/28 07:50:56;;;;;;;8.75;6.05;;;;;;;1.45;52.65;94250.31;5113802;28;20034;-80
2023/03/28 07:53:22;;;;;;;9.80;6.72;;;;;;;1.32;52.88;94201.53;5096841;28;20039;-80
2023/03/28 07:55:48;;;;;;;11.23;6.75;;;;;;;1.69;51.61;94258.31;5115251;28;20077;-80
2023/03/28 07:58:14;;;;;;;9.57;5.93;;;;;;;2.12;50.58;94329.34;5097073;28;20027;-80
2023/03/28 08:00:39;;;;;;;9.98;5.88;;;;;;;1.39;51.48;94222.47;5097035;28;20036;-80
2023/03/28 08:03:06;;;;;;;9.15;6.88;;;;;;;1.61;51.97;94270.72;5114616;28;20634;-80
2023/03/28 08:05:33;;;;;;;7.93;6.07;;;;;;;1.62;50.98;94266.44;5096632;28;20410;-80
2023/03/28 08:07:58;;;;;;;8.10;6.07;;;;;;;1.66;51.07;94253.38;5113886;28;20024;-80
2023/03/28 08:10:24;;;;;;;10.38;6.95;;;;;;;1.52;52.32;94243.09;5096886;28;20043;-80
2023/03/28 08:12:50;;;;;;;11.73;6.40;;;;;;;1.71;50.83;94276.97;5113469;28;20051;-80
2023/03/28 08:15:16;;;;;;;10.05;6.65;;;;;;;2.03;50.94;94338.34;5096605;28;20088;-80
2023/03/28 08:17:41;;;;;;;22.65;12.82;;;;;;;1.90;52.08;94291.31;5114742;28;20151;-80
2023/03/28 08:20:09;;;;;;;32.55;15.13;;;;;;;1.64;52.09;94257.75;5096067;28;20035;-79
2023/03/28 08:22:34;;;;;;;24.27;12.18;;;;;;;1.34;52.12;94222.75;5113067;28;20028;-80
2023/03/28 08:24:59;;;;;;;38.85;24.35;;;;;;;1.86;53.36;94331.63;5113266;28;20410;-80
2023/03/28 08:27:25;;;;;;;46.17;27.92;;;;;;;1.59;53.88;94277.69;5114712;27;20028;-80
2023/03/28 08:29:51;;;;;;;17.58;13.45;;;;;;;1.98;53.87;94360.88;5095798;28;20516;-80
2023/03/28 08:32:16;;;;;;;20.15;11.95;;;;;;;1.24;53.10;94252.31;5113388;28;20498;-80
2023/03/28 08:34:42;;;;;;;24.73;17.25;;;;;;;1.37;53.56;94267.81;5114062;28;20038;-80
2023/03/28 08:37:07;;;;;;;12.05;7.88;;;;;;;1.54;53.66;94297.59;5114364;28;20278;-80
2023/03/28 08:39:33;;;;;;;14.60;8.98;;;;;;;1.44;54.22;94266.56;5114148;28;20478;-80
2023/03/28 08:42:40;;;;;;;12.88;10.35;;;;;;;2.15;53.87;94358.19;5112970;28;20024;-80
2023/03/28 08:45:07;;;;;;;18.88;12.20;;;;;;;2.25;52.86;94378.97;5070849;28;20093;-80
2023/03/28 08:47:38;;;;;;;14.52;9.90;;;;;;;2.22;53.05;94374.84;5070859;28;20032;-80
2023/03/28 08:50:18;;;;;;;16.67;11.20;;;;;;;2.26;52.77;94379.78;5076113;28;20054;-80
2023/03/28 08:52:44;;;;;;;15.68;10.45;;;;;;;2.29;52.94;94385.59;5096138;28;20080;-80
2023/03/28 08:55:23;;;;;;;13.95;10.60;;;;;;;1.94;52.58;94326.09;5112488;28;20452;-80
2023/03/28 08:57:50;;;;;;;13.10;7.22;;;;;;;1.82;53.31;94283.25;5095651;28;20032;-80
2023/03/28 09:00:23;;;;;;;17.55;11.93;;;;;;;2.01;52.27;94282.09;5095862;28;20034;-80
2023/03/28 09:02:49;;;;;;;12.80;8.50;;;;;;;2.05;51.49;94282.72;5096463;28;20032;-80
2023/03/28 09:05:15;;;;;;;9.23;6.80;;;;;;;2.32;50.30;94310.25;5113569;28;20098;-81
2023/03/28 09:07:50;;;;;;;10.60;7.40;;;;;;;2.95;49.91;94398.84;5078941;28;20114;-80
2023/03/28 09:10:37;;;;;;;10.15;7.15;;;;;;;3.13;49.04;94398.56;5112120;28;20032;-80
2023/03/28 09:13:21;;;;;;;15.02;8.93;;;;;;;3.10;49.51;94403.91;5089604;28;20502;-80
2023/03/28 09:16:11;;;;;;;25.52;13.35;;;;;;;3.18;48.90;94420.59;5091614;28;20097;-81
2023/03/28 09:19:27;;;;;;;9.65;7.05;;;;;;;2.54;49.99;94346.53;5093026;28;20129;-80
2023/03/28 09:22:09;;;;;;;10.57;7.30;;;;;;;3.22;50.27;94414.34;5078225;28;20437;-80
2023/03/28 09:24:40;;;;;;;22.38;11.68;;;;;;;2.55;49.93;94273.78;5091111;28;20039;-80
2023/03/28 09:27:29;;;;;;;18.00;9.98;;;;;;;3.12;49.12;94344.75;5092045;28;20039;-80
2023/03/28 09:29:57;;;;;;;26.40;11.95;;;;;;;3.14;47.89;94348.88;5091711;28;20437;-80
2023/03/28 09:32:27;;;;;;;13.70;8.30;;;;;;;3.57;49.36;94415.59;5074645;28;20024;-80
2023/03/28 09:34:52;;;;;;;15.27;7.53;;;;;;;3.02;49.25;94339.38;5074566;28;20047;-80
2023/03/28 09:37:27;;;;;;;10.43;7.10;;;;;;;3.54;48.54;94422.66;5091299;28;20060;-80
2023/03/28 09:39:53;;;;;;;9.75;6.07;;;;;;;3.57;48.48;94423.28;5091532;28;20024;-80
2023/03/28 09:42:30;;;;;;;15.98;9.80;;;;;;;3.57;49.33;94425.88;5091223;28;20540;-80
2023/03/28 09:45:01;;;;;;;11.18;8.75;;;;;;;2.97;48.64;94354.22;5091312;28;20028;-80
2023/03/28 09:47:27;;;;;;;11.10;7.53;;;;;;;2.61;48.51;94304.19;5091438;28;20052;-80
2023/03/28 09:49:53;;;;;;;16.33;11.10;;;;;;;2.80;49.27;94329.56;5091127;28;20040;-80
2023/03/28 09:52:18;;;;;;;12.77;8.68;;;;;;;2.72;49.26;94313.81;5091365;28;20027;-80
2023/03/28 09:54:44;;;;;;;19.45;12.07;;;;;;;3.33;49.99;94420.47;5090864;28;20044;-80
2023/03/28 09:57:09;;;;;;;11.23;8.18;;;;;;;2.68;49.12;94305.50;5091016;28;20028;-81
2023/03/28 09:59:35;;;;;;;8.43;6.32;;;;;;;3.15;48.58;94367.69;5092031;28;20471;-80
2023/03/28 10:02:02;;;;;;;8.07;5.40;;;;;;;2.84;47.75;94341.31;5090828;28;20448;-80
2023/03/28 10:04:28;;;;;;;11.88;6.80;;;;;;;3.28;49.30;94414.78;5090449;28;20036;-80
2023/03/28 10:07:09;;;;;;;10.25;7.20;;;;;;;3.08;48.69;94416.00;5090408;28;20085;-80
2023/03/28 10:09:41;;;;;;;7.43;5.55;;;;;;;2.26;48.48;94285.78;5092195;28;20032;-80
2023/03/28 10:12:16;;;;;;;10.15;6.90;;;;;;;2.56;47.78;94319.03;5090951;28;20032;-80
2023/03/28 10:14:42;;;;;;;15.25;9.30;;;;;;;3.30;46.67;94401.88;5073931;28;20052;-80
2023/03/28 10:17:36;;;;;;;13.00;7.68;;;;;;;3.47;46.12;94406.78;5073686;28;20036;-80
2023/03/28 10:20:14;;;;;;;12.30;8.18;;;;;;;3.04;46.35;94317.00;5089737;28;20391;-80
2023/03/28 10:22:39;;;;;;;20.58;10.10;;;;;;;3.33;45.18;94374.25;5073305;28;20032;-80
2023/03/28 10:25:06;;;;;;;18.20;9.73;;;;;;;3.19;45.64;94360.63;5090428;28;20064;-80
2023/03/28 10:27:33;;;;;;;15.40;7.80;;;;;;;3.47;46.01;94390.56;5073438;28;20032;-80
2023/03/28 10:30:23;;;;;;;28.83;19.00;;;;;;;3.93;46.13;94413.41;5090219;28;20032;-81
2023/03/28 10:33:15;;;;;;;13.93;9.90;;;;;;;3.98;45.89;94413.91;5069873;28;20454;-81
2023/03/28 10:35:45;;;;;;;14.70;9.07;;;;;;;3.62;44.94;94343.38;5092112;28;20064;-80
2023/03/28 10:38:17;;;;;;;13.93;8.90;;;;;;;3.48;44.97;94312.59;5090252;28;20028;-80
2023/03/28 10:40:50;;;;;;;9.18;7.40;;;;;;;3.49;43.52;94309.94;5090069;28;20032;-81
2023/03/28 10:43:16;;;;;;;13.73;8.73;;;;;;;3.43;44.39;94261.53;5090182;28;20032;-80
2023/03/28 10:45:42;;;;;;;8.80;6.47;;;;;;;4.38;42.29;94389.06;5056438;28;20042;-80
2023/03/28 10:48:19;;;;;;;10.18;6.57;;;;;;;4.09;43.54;94377.25;5090160;28;20501;-80
2023/03/28 10:50:54;;;;;;;9.75;7.00;;;;;;;3.68;43.74;94362.72;5089956;28;20479;-81
2023/03/28 10:53:42;;;;;;;10.80;7.63;;;;;;;4.24;45.62;94430.25;5089812;28;20106;-80
2023/03/28 10:56:20;;;;;;;14.73;10.65;;;;;;;4.07;44.27;94454.47;5089581;28;20032;-81
2023/03/28 10:58:46;;;;;;;11.40;8.02;;;;;;;3.83;44.04;94445.72;5089717;28;20039;-80
2023/03/28 11:01:19;;;;;;;20.08;14.95;;;;;;;3.83;45.57;94459.41;5091538;28;20103;-81
2023/03/28 11:04:14;;;;;;;11.75;9.88;;;;;;;3.59;45.23;94430.88;5090045;28;20570;-80
2023/03/28 11:06:48;;;;;;;20.30;14.02;;;;;;;3.74;45.12;94447.13;5073055;28;20048;-80
2023/03/28 11:09:35;;;;;;;22.38;15.60;;;;;;;3.80;46.24;94418.47;5090717;28;20028;-80
2023/03/28 11:12:06;;;;;;;11.18;8.63;;;;;;;3.88;46.75;94452.22;5089743;28;20056;-80
2023/03/28 11:14:40;;;;;;;10.90;7.13;;;;;;;3.26;45.55;94362.72;5090120;28;20024;-80
2023/03/28 11:17:28;;;;;;;13.93;10.43;;;;;;;3.37;45.01;94385.16;5089790;28;20028;-80
2023/03/28 11:20:16;;;;;;;27.60;22.35;;;;;;;3.99;46.11;94444.66;5075644;28;20035;-80
2023/03/28 11:22:47;;;;;;;16.80;11.30;;;;;;;4.13;43.84;94427.56;5077682;28;20024;-80
2023/03/28 11:25:33;;;;;;;9.85;6.90;;;;;;;4.23;43.93;94446.59;5094541;28;20036;-80
2023/03/28 11:28:09;;;;;;;6.43;5.28;;;;;;;3.16;43.74;94324.88;5094154;28;20050;-80
2023/03/28 11:30:35;;;;;;;8.43;5.90;;;;;;;3.22;43.92;94339.91;5093435;28;20075;-81
2023/03/28 11:33:20;;;;;;;10.00;5.85;;;;;;;3.36;43.77;94337.28;5093375;28;20043;-82
2023/03/28 11:35:48;;;;;;;28.20;11.73;;;;;;;3.34;44.27;94344.25;5093552;28;20504;-81
2023/03/28 11:38:21;;;;;;;9.52;6.80;;;;;;;4.15;44.45;94439.41;5093344;28;20114;-80
2023/03/28 11:41:03;;;;;;;9.63;8.43;;;;;;;3.75;44.18;94336.53;5093338;28;20445;-80
2023/03/28 11:43:36;;;;;;;8.05;6.55;;;;;;;4.25;42.99;94407.00;5093097;28;20492;-80
2023/03/28 11:46:11;;;;;;;8.55;5.47;;;;;;;4.41;42.04;94448.00;5093317;28;20354;-80
2023/03/28 11:48:41;;;;;;;7.28;5.53;;;;;;;3.64;42.22;94331.25;5093390;28;20455;-80
2023/03/28 11:51:13;;;;;;;12.48;10.52;;;;;;;4.09;41.17;94362.63;5093561;28;20032;-81
2023/03/28 11:54:04;;;;;;;6.38;4.63;;;;;;;3.66;42.03;94360.25;5077127;28;20036;-81